sensor_id;sensor_type;location;lat;lon;timestamp;pressure;altitude;pressure_sealevel;temperature;humidity
51986;BME280;38002;53.296;6.600;2023-02-21T00:00:34;101912.47;;;9.66;89.78
51986;BME280;38002;53.296;6.600;2023-02-21T00:05:53;101920.75;;;9.65;90.29
51986;BME280;38002;53.296;6.600;2023-02-21T00:11:12;101921.13;;;9.60;90.23
51986;BME280;38002;53.296;6.600;2023-02-21T00:16:32;101917.16;;;9.64;89.90
51986;BME280;38002;53.296;6.600;2023-02-21T00:21:51;101915.59;;;9.62;89.98
51986;BME280;38002;53.296;6.600;2023-02-21T00:27:10;101917.44;;;9.61;89.80
51986;BME280;38002;53.296;6.600;2023-02-21T00:32:29;101922.00;;;9.61;89.78
51986;BME280;38002;53.296;6.600;2023-02-21T00:37:49;101910.53;;;9.57;90.47
51986;BME280;38002;53.296;6.600;2023-02-21T00:43:09;101919.66;;;9.56;89.63
51986;BME280;38002;53.296;6.600;2023-02-21T00:48:28;101917.06;;;9.54;89.54
51986;BME280;38002;53.296;6.600;2023-02-21T00:53:48;101901.06;;;9.51;89.70
51986;BME280;38002;53.296;6.600;2023-02-21T00:59:07;101911.03;;;9.51;90.19
51986;BME280;38002;53.296;6.600;2023-02-21T01:04:26;101897.75;;;9.48;89.88
51986;BME280;38002;53.296;6.600;2023-02-21T01:09:45;101896.88;;;9.47;90.28
51986;BME280;38002;53.296;6.600;2023-02-21T01:15:04;101897.75;;;9.48;90.36
51986;BME280;38002;53.296;6.600;2023-02-21T01:20:24;101902.41;;;9.46;90.44
51986;BME280;38002;53.296;6.600;2023-02-21T01:25:43;101904.16;;;9.47;90.27
51986;BME280;38002;53.296;6.600;2023-02-21T01:31:02;101899.72;;;9.46;90.63
51986;BME280;38002;53.296;6.600;2023-02-21T01:36:21;101899.59;;;9.47;90.25
51986;BME280;38002;53.296;6.600;2023-02-21T01:41:40;101903.28;;;9.46;90.34
51986;BME280;38002;53.296;6.600;2023-02-21T01:46:59;101893.41;;;9.45;90.22
51986;BME280;38002;53.296;6.600;2023-02-21T01:52:18;101897.97;;;9.45;90.28
51986;BME280;38002;53.296;6.600;2023-02-21T01:57:39;101901.72;;;9.44;90.43
51986;BME280;38002;53.296;6.600;2023-02-21T02:03:01;101903.56;;;9.43;90.54
51986;BME280;38002;53.296;6.600;2023-02-21T02:08:26;101897.38;;;9.41;90.73
51986;BME280;38002;53.296;6.600;2023-02-21T02:14:02;101908.22;;;9.41;90.34
51986;BME280;38002;53.296;6.600;2023-02-21T02:35:00;101912.34;;;9.36;90.25
51986;BME280;38002;53.296;6.600;2023-02-21T02:40:13;101898.78;;;9.36;90.86
51986;BME280;38002;53.296;6.600;2023-02-21T02:45:29;101907.03;;;9.34;90.96
51986;BME280;38002;53.296;6.600;2023-02-21T02:50:33;101907.16;;;9.33;89.94
51986;BME280;38002;53.296;6.600;2023-02-21T02:56:01;101918.00;;;9.33;90.57
51986;BME280;38002;53.296;6.600;2023-02-21T03:11:28;101932.59;;;9.32;90.59
51986;BME280;38002;53.296;6.600;2023-02-21T03:16:39;101940.59;;;9.33;90.37
51986;BME280;38002;53.296;6.600;2023-02-21T03:21:57;101947.88;;;9.33;91.36
51986;BME280;38002;53.296;6.600;2023-02-21T03:27:03;101947.75;;;9.34;91.56
51986;BME280;38002;53.296;6.600;2023-02-21T03:32:09;101946.88;;;9.34;90.73
51986;BME280;38002;53.296;6.600;2023-02-21T03:37:35;101940.59;;;9.33;91.51
51986;BME280;38002;53.296;6.600;2023-02-21T03:42:36;101947.00;;;9.32;91.83
51986;BME280;38002;53.296;6.600;2023-02-21T03:47:36;101943.47;;;9.32;91.71
51986;BME280;38002;53.296;6.600;2023-02-21T03:52:37;101941.72;;;9.31;91.96
51986;BME280;38002;53.296;6.600;2023-02-21T03:57:37;101937.16;;;9.31;91.73
51986;BME280;38002;53.296;6.600;2023-02-21T04:02:38;101959.97;;;9.29;91.18
51986;BME280;38002;53.296;6.600;2023-02-21T04:07:38;101961.81;;;9.28;91.84
51986;BME280;38002;53.296;6.600;2023-02-21T04:12:39;101961.97;;;9.27;91.92
51986;BME280;38002;53.296;6.600;2023-02-21T04:17:39;101959.38;;;9.25;91.39
51986;BME280;38002;53.296;6.600;2023-02-21T04:22:40;101958.66;;;9.23;91.24
51986;BME280;38002;53.296;6.600;2023-02-21T04:27:40;101952.34;;;9.23;90.84
51986;BME280;38002;53.296;6.600;2023-02-21T04:32:41;101957.03;;;9.21;91.16
51986;BME280;38002;53.296;6.600;2023-02-21T04:37:41;101953.47;;;9.20;91.45
51986;BME280;38002;53.296;6.600;2023-02-21T04:42:44;101952.72;;;9.18;91.80
51986;BME280;38002;53.296;6.600;2023-02-21T04:47:44;101945.56;;;9.17;91.53
51986;BME280;38002;53.296;6.600;2023-02-21T04:52:46;101945.56;;;9.17;90.93
51986;BME280;38002;53.296;6.600;2023-02-21T04:57:46;101946.72;;;9.15;91.82
51986;BME280;38002;53.296;6.600;2023-02-21T05:02:47;101937.94;;;9.11;91.22
51986;BME280;38002;53.296;6.600;2023-02-21T05:07:47;101945.19;;;9.10;91.79
51986;BME280;38002;53.296;6.600;2023-02-21T05:12:48;101952.63;;;9.08;92.09
51986;BME280;38002;53.296;6.600;2023-02-21T05:17:48;101935.75;;;9.05;91.18
51986;BME280;38002;53.296;6.600;2023-02-21T05:22:48;101949.16;;;9.06;92.23
51986;BME280;38002;53.296;6.600;2023-02-21T05:27:52;101943.72;;;9.06;91.33
51986;BME280;38002;53.296;6.600;2023-02-21T05:32:53;101941.16;;;9.05;91.61
51986;BME280;38002;53.296;6.600;2023-02-21T05:37:53;101951.16;;;9.04;91.87
51986;BME280;38002;53.296;6.600;2023-02-21T05:42:54;101966.56;;;9.04;92.28
51986;BME280;38002;53.296;6.600;2023-02-21T05:47:54;101966.56;;;9.04;92.13
51986;BME280;38002;53.296;6.600;2023-02-21T05:52:59;101966.81;;;9.01;92.40
51986;BME280;38002;53.296;6.600;2023-02-21T05:58:00;101963.97;;;9.02;91.88
51986;BME280;38002;53.296;6.600;2023-02-21T06:03:00;101965.09;;;9.00;92.17
51986;BME280;38002;53.296;6.600;2023-02-21T06:08:01;101956.09;;;8.99;91.45
51986;BME280;38002;53.296;6.600;2023-02-21T06:13:01;101952.63;;;8.97;91.40
51986;BME280;38002;53.296;6.600;2023-02-21T06:18:02;101953.63;;;8.96;91.41
51986;BME280;38002;53.296;6.600;2023-02-21T06:23:02;101956.47;;;8.95;91.34
51986;BME280;38002;53.296;6.600;2023-02-21T06:28:03;101966.44;;;8.94;90.83
51986;BME280;38002;53.296;6.600;2023-02-21T06:33:04;101961.16;;;8.93;91.41
51986;BME280;38002;53.296;6.600;2023-02-21T06:38:04;101964.84;;;8.92;91.74
51986;BME280;38002;53.296;6.600;2023-02-21T06:43:05;101951.41;;;8.90;91.79
51986;BME280;38002;53.296;6.600;2023-02-21T06:48:05;101968.53;;;8.91;91.67
51986;BME280;38002;53.296;6.600;2023-02-21T06:53:06;101964.97;;;8.90;91.33
51986;BME280;38002;53.296;6.600;2023-02-21T06:58:07;101975.09;;;8.88;91.69
51986;BME280;38002;53.296;6.600;2023-02-21T07:03:07;101977.81;;;8.88;91.67
51986;BME280;38002;53.296;6.600;2023-02-21T07:08:08;101984.06;;;8.89;91.40
51986;BME280;38002;53.296;6.600;2023-02-21T07:13:08;101988.66;;;8.88;91.94
51986;BME280;38002;53.296;6.600;2023-02-21T07:18:09;101988.66;;;8.88;91.65
51986;BME280;38002;53.296;6.600;2023-02-21T07:23:09;101989.50;;;8.89;91.92
51986;BME280;38002;53.296;6.600;2023-02-21T07:28:10;101989.38;;;8.90;92.40
51986;BME280;38002;53.296;6.600;2023-02-21T07:33:11;101991.00;;;8.93;92.07
51986;BME280;38002;53.296;6.600;2023-02-21T07:38:26;101985.56;;;8.93;92.88
51986;BME280;38002;53.296;6.600;2023-02-21T07:43:28;101992.69;;;8.94;91.68
51986;BME280;38002;53.296;6.600;2023-02-21T07:48:29;101997.91;;;8.97;92.44
51986;BME280;38002;53.296;6.600;2023-02-21T07:53:30;102002.31;;;8.98;92.17
51986;BME280;38002;53.296;6.600;2023-02-21T07:58:30;101996.78;;;8.99;92.36
51986;BME280;38002;53.296;6.600;2023-02-21T08:03:31;102003.69;;;9.03;92.06
51986;BME280;38002;53.296;6.600;2023-02-21T08:08:32;102004.19;;;9.08;92.56
51986;BME280;38002;53.296;6.600;2023-02-21T08:13:33;102007.50;;;9.12;92.70
51986;BME280;38002;53.296;6.600;2023-02-21T08:18:33;102003.69;;;9.15;92.59
51986;BME280;38002;53.296;6.600;2023-02-21T08:23:33;102007.88;;;9.19;92.39
51986;BME280;38002;53.296;6.600;2023-02-21T08:28:34;102016.75;;;9.21;92.64
51986;BME280;38002;53.296;6.600;2023-02-21T08:33:36;102021.78;;;9.25;92.70
51986;BME280;38002;53.296;6.600;2023-02-21T08:38:37;102015.00;;;9.31;92.26
51986;BME280;38002;53.296;6.600;2023-02-21T08:43:38;102014.75;;;9.34;92.42
51986;BME280;38002;53.296;6.600;2023-02-21T08:48:39;102013.25;;;9.41;92.35
51986;BME280;38002;53.296;6.600;2023-02-21T08:53:39;102016.22;;;9.49;92.39
51986;BME280;38002;53.296;6.600;2023-02-21T08:58:40;102018.13;;;9.58;91.82
51986;BME280;38002;53.296;6.600;2023-02-21T09:03:40;102008.63;;;9.64;92.10
51986;BME280;38002;53.296;6.600;2023-02-21T09:08:41;102006.28;;;9.70;92.08
51986;BME280;38002;53.296;6.600;2023-02-21T09:13:42;102018.47;;;9.76;91.34
51986;BME280;38002;53.296;6.600;2023-02-21T09:18:42;102007.09;;;9.82;91.36
51986;BME280;38002;53.296;6.600;2023-02-21T09:23:42;102006.81;;;9.85;91.17
51986;BME280;38002;53.296;6.600;2023-02-21T09:28:43;102004.09;;;9.96;91.04
51986;BME280;38002;53.296;6.600;2023-02-21T09:33:44;102013.16;;;10.06;90.92
51986;BME280;38002;53.296;6.600;2023-02-21T09:38:44;102005.34;;;10.13;90.67
51986;BME280;38002;53.296;6.600;2023-02-21T09:43:51;102012.88;;;10.20;90.42
51986;BME280;38002;53.296;6.600;2023-02-21T09:48:53;102007.75;;;10.27;90.86
51986;BME280;38002;53.296;6.600;2023-02-21T09:53:55;102013.66;;;10.32;90.33
51986;BME280;38002;53.296;6.600;2023-02-21T09:58:56;102006.97;;;10.36;90.30
51986;BME280;38002;53.296;6.600;2023-02-21T10:09:42;102018.72;;;10.36;90.04
51986;BME280;38002;53.296;6.600;2023-02-21T10:14:52;102021.97;;;10.30;90.56
51986;BME280;38002;53.296;6.600;2023-02-21T10:20:01;102023.84;;;10.30;90.22
51986;BME280;38002;53.296;6.600;2023-02-21T10:25:27;102018.25;;;10.31;90.41
51986;BME280;38002;53.296;6.600;2023-02-21T10:30:35;102028.00;;;10.34;90.39
51986;BME280;38002;53.296;6.600;2023-02-21T10:35:37;102028.59;;;10.37;90.58
51986;BME280;38002;53.296;6.600;2023-02-21T10:46:00;102033.75;;;10.40;90.69
51986;BME280;38002;53.296;6.600;2023-02-21T11:06:46;102046.44;;;10.51;90.66
51986;BME280;38002;53.296;6.600;2023-02-21T11:17:21;102052.59;;;10.53;90.55
51986;BME280;38002;53.296;6.600;2023-02-21T11:27:38;102050.16;;;10.50;90.75
51986;BME280;38002;53.296;6.600;2023-02-21T11:32:40;102041.00;;;10.51;90.26
51986;BME280;38002;53.296;6.600;2023-02-21T11:37:54;102039.00;;;10.53;90.30
51986;BME280;38002;53.296;6.600;2023-02-21T11:43:31;102044.31;;;10.55;90.44
51986;BME280;38002;53.296;6.600;2023-02-21T11:49:15;102035.19;;;10.56;90.05
51986;BME280;38002;53.296;6.600;2023-02-21T11:54:19;102040.63;;;10.56;90.64
51986;BME280;38002;53.296;6.600;2023-02-21T12:21:06;102026.34;;;10.63;90.42
51986;BME280;38002;53.296;6.600;2023-02-21T12:26:20;102025.47;;;10.63;89.85
51986;BME280;38002;53.296;6.600;2023-02-21T12:47:15;101999.78;;;10.76;90.66
51986;BME280;38002;53.296;6.600;2023-02-21T13:03:39;101992.59;;;10.75;89.97
51986;BME280;38002;53.296;6.600;2023-02-21T13:08:54;101990.88;;;10.74;90.13
51986;BME280;38002;53.296;6.600;2023-02-21T13:13:57;101979.16;;;10.74;90.19
51986;BME280;38002;53.296;6.600;2023-02-21T13:19:06;101984.59;;;10.74;89.79
51986;BME280;38002;53.296;6.600;2023-02-21T13:24:14;101980.88;;;10.75;90.08
51986;BME280;38002;53.296;6.600;2023-02-21T13:29:25;101976.44;;;10.74;90.18
51986;BME280;38002;53.296;6.600;2023-02-21T13:34:30;101967.13;;;10.76;90.16
51986;BME280;38002;53.296;6.600;2023-02-21T13:39:35;101968.00;;;10.77;90.17
51986;BME280;38002;53.296;6.600;2023-02-21T13:44:40;101957.69;;;10.80;90.09
51986;BME280;38002;53.296;6.600;2023-02-21T14:05:25;101946.28;;;10.86;89.99
51986;BME280;38002;53.296;6.600;2023-02-21T14:10:53;101942.28;;;10.90;89.85
51986;BME280;38002;53.296;6.600;2023-02-21T14:21:28;101940.84;;;10.96;89.75
51986;BME280;38002;53.296;6.600;2023-02-21T14:26:50;101938.00;;;10.98;89.58
51986;BME280;38002;53.296;6.600;2023-02-21T14:37:21;101926.81;;;11.01;89.83
51986;BME280;38002;53.296;6.600;2023-02-21T14:53:08;101926.13;;;10.99;89.91
51986;BME280;38002;53.296;6.600;2023-02-21T15:03:32;101922.22;;;10.91;89.70
51986;BME280;38002;53.296;6.600;2023-02-21T15:08:41;101928.22;;;10.85;89.87
51986;BME280;38002;53.296;6.600;2023-02-21T15:13:42;101935.94;;;10.80;89.93
51986;BME280;38002;53.296;6.600;2023-02-21T15:19:00;101939.19;;;10.74;89.46
51986;BME280;38002;53.296;6.600;2023-02-21T15:24:10;101931.31;;;10.71;89.64
51986;BME280;38002;53.296;6.600;2023-02-21T15:29:16;101938.16;;;10.66;89.87
51986;BME280;38002;53.296;6.600;2023-02-21T15:34:24;101932.41;;;10.59;90.08
51986;BME280;38002;53.296;6.600;2023-02-21T15:39:30;101941.66;;;10.47;90.01
51986;BME280;38002;53.296;6.600;2023-02-21T15:44:42;101937.44;;;10.33;90.09
51986;BME280;38002;53.296;6.600;2023-02-21T16:00:28;101948.13;;;10.14;90.54
51986;BME280;38002;53.296;6.600;2023-02-21T16:05:29;101948.41;;;10.11;91.00
51986;BME280;38002;53.296;6.600;2023-02-21T16:10:31;101950.53;;;10.08;90.96
51986;BME280;38002;53.296;6.600;2023-02-21T16:15:33;101941.91;;;10.02;91.17
51986;BME280;38002;53.296;6.600;2023-02-21T16:20:40;101944.63;;;10.02;90.85
51986;BME280;38002;53.296;6.600;2023-02-21T16:31:13;101948.28;;;9.92;91.65
51986;BME280;38002;53.296;6.600;2023-02-21T16:36:40;101951.38;;;9.87;91.39
51986;BME280;38002;53.296;6.600;2023-02-21T16:41:41;101960.78;;;9.83;91.80
51986;BME280;38002;53.296;6.600;2023-02-21T16:46:42;101955.00;;;9.77;91.35
51986;BME280;38002;53.296;6.600;2023-02-21T16:51:43;101963.28;;;9.75;91.62
51986;BME280;38002;53.296;6.600;2023-02-21T16:56:45;101967.13;;;9.73;91.21
51986;BME280;38002;53.296;6.600;2023-02-21T17:01:47;101968.75;;;9.64;92.30
51986;BME280;38002;53.296;6.600;2023-02-21T17:06:58;101980.59;;;9.63;91.53
51986;BME280;38002;53.296;6.600;2023-02-21T17:12:00;101983.72;;;9.58;91.91
51986;BME280;38002;53.296;6.600;2023-02-21T17:17:00;101991.13;;;9.56;91.88
51986;BME280;38002;53.296;6.600;2023-02-21T17:22:01;101987.06;;;9.51;91.68
51986;BME280;38002;53.296;6.600;2023-02-21T17:27:01;101979.31;;;9.46;91.93
51986;BME280;38002;53.296;6.600;2023-02-21T17:32:02;101991.28;;;9.44;92.00
51986;BME280;38002;53.296;6.600;2023-02-21T17:37:06;101994.50;;;9.38;91.79
51986;BME280;38002;53.296;6.600;2023-02-21T17:42:08;101991.78;;;9.38;92.48
51986;BME280;38002;53.296;6.600;2023-02-21T17:47:09;101995.47;;;9.37;92.68
51986;BME280;38002;53.296;6.600;2023-02-21T17:52:09;102004.66;;;9.36;92.62
51986;BME280;38002;53.296;6.600;2023-02-21T17:57:11;101997.75;;;9.32;92.22
51986;BME280;38002;53.296;6.600;2023-02-21T18:02:13;101990.59;;;9.31;92.98
51986;BME280;38002;53.296;6.600;2023-02-21T18:07:13;102001.81;;;9.26;92.49
51986;BME280;38002;53.296;6.600;2023-02-21T18:12:14;101999.09;;;9.26;92.76
51986;BME280;38002;53.296;6.600;2023-02-21T18:17:15;102004.16;;;9.20;93.28
51986;BME280;38002;53.296;6.600;2023-02-21T18:22:17;102012.06;;;9.11;93.83
51986;BME280;38002;53.296;6.600;2023-02-21T18:27:17;102003.19;;;9.09;92.62
51986;BME280;38002;53.296;6.600;2023-02-21T18:32:19;102002.44;;;9.07;93.43
51986;BME280;38002;53.296;6.600;2023-02-21T18:37:19;102001.84;;;9.04;93.01
51986;BME280;38002;53.296;6.600;2023-02-21T18:42:21;102003.69;;;9.03;93.60
51986;BME280;38002;53.296;6.600;2023-02-21T18:47:24;101993.94;;;9.01;93.37
51986;BME280;38002;53.296;6.600;2023-02-21T18:52:25;101996.53;;;9.02;93.43
51986;BME280;38002;53.296;6.600;2023-02-21T18:57:26;101990.22;;;9.02;93.56
51986;BME280;38002;53.296;6.600;2023-02-21T19:02:26;101986.19;;;8.96;93.39
51986;BME280;38002;53.296;6.600;2023-02-21T19:07:27;101996.44;;;8.93;93.11
51986;BME280;38002;53.296;6.600;2023-02-21T19:12:31;101986.56;;;8.92;93.23
51986;BME280;38002;53.296;6.600;2023-02-21T19:17:31;101975.56;;;8.93;93.94
51986;BME280;38002;53.296;6.600;2023-02-21T19:22:32;101979.03;;;8.95;93.69
51986;BME280;38002;53.296;6.600;2023-02-21T19:27:32;101976.06;;;8.98;93.62
51986;BME280;38002;53.296;6.600;2023-02-21T19:32:33;101970.63;;;8.98;94.21
51986;BME280;38002;53.296;6.600;2023-02-21T19:37:35;101972.63;;;8.96;94.39
51986;BME280;38002;53.296;6.600;2023-02-21T19:42:38;101971.75;;;8.96;93.54
51986;BME280;38002;53.296;6.600;2023-02-21T19:47:38;101965.72;;;8.92;93.54
51986;BME280;38002;53.296;6.600;2023-02-21T19:52:39;101961.00;;;8.94;93.47
51986;BME280;38002;53.296;6.600;2023-02-21T19:57:39;101953.84;;;8.93;94.12
51986;BME280;38002;53.296;6.600;2023-02-21T20:02:40;101953.63;;;8.96;93.51
51986;BME280;38002;53.296;6.600;2023-02-21T20:07:43;101953.63;;;8.96;93.16
51986;BME280;38002;53.296;6.600;2023-02-21T20:12:44;101948.31;;;8.95;93.45
51986;BME280;38002;53.296;6.600;2023-02-21T20:17:45;101953.84;;;8.93;93.58
51986;BME280;38002;53.296;6.600;2023-02-21T20:22:46;101941.16;;;8.94;94.03
51986;BME280;38002;53.296;6.600;2023-02-21T20:27:46;101942.03;;;8.94;93.62
51986;BME280;38002;53.296;6.600;2023-02-21T20:32:47;101932.16;;;8.93;93.60
51986;BME280;38002;53.296;6.600;2023-02-21T20:37:48;101932.16;;;8.93;93.42
51986;BME280;38002;53.296;6.600;2023-02-21T20:42:49;101923.31;;;8.91;93.87
51986;BME280;38002;53.296;6.600;2023-02-21T20:47:50;101930.94;;;8.86;93.87
51986;BME280;38002;53.296;6.600;2023-02-21T20:52:50;101930.06;;;8.86;93.96
51986;BME280;38002;53.296;6.600;2023-02-21T20:57:51;101938.47;;;8.83;93.94
51986;BME280;38002;53.296;6.600;2023-02-21T21:02:52;101947.69;;;8.80;93.70
51986;BME280;38002;53.296;6.600;2023-02-21T21:07:52;101951.44;;;8.79;94.29
51986;BME280;38002;53.296;6.600;2023-02-21T21:12:55;101941.81;;;8.75;93.75
51986;BME280;38002;53.296;6.600;2023-02-21T21:17:55;101944.91;;;8.71;93.92
51986;BME280;38002;53.296;6.600;2023-02-21T21:22:56;101935.13;;;8.68;94.11
51986;BME280;38002;53.296;6.600;2023-02-21T21:27:56;101935.91;;;8.70;94.46
51986;BME280;38002;53.296;6.600;2023-02-21T21:32:58;101933.91;;;8.72;94.44
51986;BME280;38002;53.296;6.600;2023-02-21T21:38:00;101931.09;;;8.74;94.41
51986;BME280;38002;53.296;6.600;2023-02-21T21:43:02;101931.94;;;8.74;93.96
51986;BME280;38002;53.296;6.600;2023-02-21T21:48:06;101926.63;;;8.73;94.20
51986;BME280;38002;53.296;6.600;2023-02-21T21:53:07;101926.78;;;8.71;94.14
51986;BME280;38002;53.296;6.600;2023-02-21T21:58:09;101932.44;;;8.68;94.52
51986;BME280;38002;53.296;6.600;2023-02-21T22:03:10;101919.63;;;8.70;93.92
51986;BME280;38002;53.296;6.600;2023-02-21T22:08:13;101913.22;;;8.71;94.47
51986;BME280;38002;53.296;6.600;2023-02-21T22:13:17;101905.09;;;8.71;94.80
51986;BME280;38002;53.296;6.600;2023-02-21T22:18:20;101904.94;;;8.73;94.22
51986;BME280;38002;53.296;6.600;2023-02-21T22:23:21;101908.53;;;8.73;93.53
51986;BME280;38002;53.296;6.600;2023-02-21T22:28:23;101894.97;;;8.73;94.44
51986;BME280;38002;53.296;6.600;2023-02-21T22:33:23;101888.69;;;8.73;93.86
51986;BME280;38002;53.296;6.600;2023-02-21T22:38:25;101884.38;;;8.70;93.84
51986;BME280;38002;53.296;6.600;2023-02-21T22:43:25;101881.66;;;8.70;94.51
51986;BME280;38002;53.296;6.600;2023-02-21T22:48:27;101883.63;;;8.68;94.09
51986;BME280;38002;53.296;6.600;2023-02-21T22:53:27;101879.31;;;8.65;93.99
51986;BME280;38002;53.296;6.600;2023-02-21T22:58:28;101880.19;;;8.66;94.70
51986;BME280;38002;53.296;6.600;2023-02-21T23:03:28;101878.56;;;8.63;94.29
51986;BME280;38002;53.296;6.600;2023-02-21T23:08:32;101875.75;;;8.65;94.58
51986;BME280;38002;53.296;6.600;2023-02-21T23:13:35;101870.31;;;8.65;94.25
51986;BME280;38002;53.296;6.600;2023-02-21T23:18:36;101860.47;;;8.64;94.41
51986;BME280;38002;53.296;6.600;2023-02-21T23:23:38;101851.59;;;8.62;94.44
51986;BME280;38002;53.296;6.600;2023-02-21T23:28:40;101849.00;;;8.60;94.48
51986;BME280;38002;53.296;6.600;2023-02-21T23:33:40;101840.00;;;8.60;95.04
51986;BME280;38002;53.296;6.600;2023-02-21T23:38:41;101841.75;;;8.61;94.60
51986;BME280;38002;53.296;6.600;2023-02-21T23:43:42;101842.97;;;8.57;94.48
51986;BME280;38002;53.296;6.600;2023-02-21T23:48:45;101826.13;;;8.53;94.60
51986;BME280;38002;53.296;6.600;2023-02-21T23:53:47;101824.28;;;8.54;94.41
51986;BME280;38002;53.296;6.600;2023-02-21T23:58:47;101824.38;;;8.52;94.36
